sensor_id;sensor_type;location;lat;lon;timestamp;P1;durP1;ratioP1;P2;durP2;ratioP2
57233;SDS011;43090;52.604;13.318;2023-08-06T00:00:27;11.75;;;6.00;;
57233;SDS011;43090;52.604;13.318;2023-08-06T00:02:54;10.40;;;5.32;;
57233;SDS011;43090;52.604;13.318;2023-08-06T00:05:21;10.40;;;6.05;;
57233;SDS011;43090;52.604;13.318;2023-08-06T00:10:15;10.30;;;5.43;;
57233;SDS011;43090;52.604;13.318;2023-08-06T00:12:42;14.27;;;6.28;;
57233;SDS011;43090;52.604;13.318;2023-08-06T00:15:09;9.40;;;6.50;;
57233;SDS011;43090;52.604;13.318;2023-08-06T00:17:37;9.20;;;6.55;;
57233;SDS011;43090;52.604;13.318;2023-08-06T00:22:32;10.57;;;5.90;;
57233;SDS011;43090;52.604;13.318;2023-08-06T00:25:03;11.93;;;7.30;;
57233;SDS011;43090;52.604;13.318;2023-08-06T00:27:31;10.43;;;6.25;;
57233;SDS011;43090;52.604;13.318;2023-08-06T00:29:59;9.35;;;5.93;;
57233;SDS011;43090;52.604;13.318;2023-08-06T00:34:52;11.13;;;6.53;;
57233;SDS011;43090;52.604;13.318;2023-08-06T00:37:18;10.90;;;6.55;;
57233;SDS011;43090;52.604;13.318;2023-08-06T00:39:45;11.23;;;6.22;;
57233;SDS011;43090;52.604;13.318;2023-08-06T00:44:38;9.43;;;6.47;;
57233;SDS011;43090;52.604;13.318;2023-08-06T00:49:34;9.68;;;6.40;;
57233;SDS011;43090;52.604;13.318;2023-08-06T00:52:05;14.13;;;6.82;;
57233;SDS011;43090;52.604;13.318;2023-08-06T00:54:33;10.57;;;7.25;;
57233;SDS011;43090;52.604;13.318;2023-08-06T00:57:01;11.15;;;6.72;;
57233;SDS011;43090;52.604;13.318;2023-08-06T00:59:29;11.85;;;7.10;;
57233;SDS011;43090;52.604;13.318;2023-08-06T01:01:57;11.18;;;6.72;;
57233;SDS011;43090;52.604;13.318;2023-08-06T01:04:23;10.43;;;6.75;;
57233;SDS011;43090;52.604;13.318;2023-08-06T01:07:02;11.20;;;7.55;;
57233;SDS011;43090;52.604;13.318;2023-08-06T01:09:45;11.40;;;6.65;;
57233;SDS011;43090;52.604;13.318;2023-08-06T01:12:25;10.48;;;6.72;;
57233;SDS011;43090;52.604;13.318;2023-08-06T01:15:07;9.05;;;6.72;;
57233;SDS011;43090;52.604;13.318;2023-08-06T01:17:41;9.52;;;7.13;;
57233;SDS011;43090;52.604;13.318;2023-08-06T01:20:08;11.82;;;7.63;;
57233;SDS011;43090;52.604;13.318;2023-08-06T01:22:35;15.43;;;6.65;;
57233;SDS011;43090;52.604;13.318;2023-08-06T01:25:02;10.90;;;7.50;;
57233;SDS011;43090;52.604;13.318;2023-08-06T01:30:20;11.88;;;6.85;;
57233;SDS011;43090;52.604;13.318;2023-08-06T01:32:53;11.40;;;7.00;;
57233;SDS011;43090;52.604;13.318;2023-08-06T01:35:28;9.07;;;7.03;;
57233;SDS011;43090;52.604;13.318;2023-08-06T01:52:03;11.85;;;7.50;;
57233;SDS011;43090;52.604;13.318;2023-08-06T01:56:56;11.35;;;7.70;;
57233;SDS011;43090;52.604;13.318;2023-08-06T01:59:24;10.18;;;7.38;;
57233;SDS011;43090;52.604;13.318;2023-08-06T02:01:51;11.82;;;7.47;;
57233;SDS011;43090;52.604;13.318;2023-08-06T02:04:18;13.52;;;7.70;;
57233;SDS011;43090;52.604;13.318;2023-08-06T02:06:44;10.63;;;6.68;;
57233;SDS011;43090;52.604;13.318;2023-08-06T02:09:11;13.68;;;7.45;;
57233;SDS011;43090;52.604;13.318;2023-08-06T02:11:37;11.10;;;7.32;;
57233;SDS011;43090;52.604;13.318;2023-08-06T02:14:03;12.57;;;7.45;;
57233;SDS011;43090;52.604;13.318;2023-08-06T02:16:30;14.80;;;6.88;;
57233;SDS011;43090;52.604;13.318;2023-08-06T02:18:56;12.00;;;6.82;;
57233;SDS011;43090;52.604;13.318;2023-08-06T02:21:23;11.10;;;7.05;;
57233;SDS011;43090;52.604;13.318;2023-08-06T02:23:49;10.82;;;6.95;;
57233;SDS011;43090;52.604;13.318;2023-08-06T02:26:16;7.70;;;6.50;;
57233;SDS011;43090;52.604;13.318;2023-08-06T02:28:43;10.52;;;6.95;;
57233;SDS011;43090;52.604;13.318;2023-08-06T02:31:09;11.32;;;7.40;;
57233;SDS011;43090;52.604;13.318;2023-08-06T02:33:35;10.98;;;6.88;;
57233;SDS011;43090;52.604;13.318;2023-08-06T02:36:02;9.18;;;7.22;;
57233;SDS011;43090;52.604;13.318;2023-08-06T02:38:30;13.25;;;7.10;;
57233;SDS011;43090;52.604;13.318;2023-08-06T02:40:57;13.63;;;7.03;;
57233;SDS011;43090;52.604;13.318;2023-08-06T02:43:24;13.07;;;7.63;;
57233;SDS011;43090;52.604;13.318;2023-08-06T02:45:51;10.45;;;7.32;;
57233;SDS011;43090;52.604;13.318;2023-08-06T02:48:17;12.70;;;7.70;;
57233;SDS011;43090;52.604;13.318;2023-08-06T02:50:44;10.10;;;7.50;;
57233;SDS011;43090;52.604;13.318;2023-08-06T02:53:11;10.90;;;6.82;;
57233;SDS011;43090;52.604;13.318;2023-08-06T02:55:37;13.93;;;6.72;;
57233;SDS011;43090;52.604;13.318;2023-08-06T02:58:04;14.80;;;6.90;;
57233;SDS011;43090;52.604;13.318;2023-08-06T03:00:30;13.60;;;7.05;;
57233;SDS011;43090;52.604;13.318;2023-08-06T03:02:57;10.10;;;6.72;;
57233;SDS011;43090;52.604;13.318;2023-08-06T03:07:50;9.80;;;7.22;;
57233;SDS011;43090;52.604;13.318;2023-08-06T03:10:16;9.65;;;7.18;;
57233;SDS011;43090;52.604;13.318;2023-08-06T03:15:09;9.50;;;6.60;;
57233;SDS011;43090;52.604;13.318;2023-08-06T03:17:36;11.60;;;7.13;;
57233;SDS011;43090;52.604;13.318;2023-08-06T03:22:29;8.82;;;6.10;;
57233;SDS011;43090;52.604;13.318;2023-08-06T03:24:56;12.40;;;7.10;;
57233;SDS011;43090;52.604;13.318;2023-08-06T03:27:22;10.55;;;7.30;;
57233;SDS011;43090;52.604;13.318;2023-08-06T03:29:49;9.57;;;7.28;;
57233;SDS011;43090;52.604;13.318;2023-08-06T03:32:16;12.98;;;7.40;;
57233;SDS011;43090;52.604;13.318;2023-08-06T03:34:43;11.63;;;7.53;;
57233;SDS011;43090;52.604;13.318;2023-08-06T03:37:09;14.90;;;8.10;;
57233;SDS011;43090;52.604;13.318;2023-08-06T03:39:36;9.48;;;6.97;;
57233;SDS011;43090;52.604;13.318;2023-08-06T03:42:02;9.35;;;7.45;;
57233;SDS011;43090;52.604;13.318;2023-08-06T03:46:57;11.63;;;7.25;;
57233;SDS011;43090;52.604;13.318;2023-08-06T03:49:23;10.27;;;8.00;;
57233;SDS011;43090;52.604;13.318;2023-08-06T03:51:50;12.98;;;7.40;;
57233;SDS011;43090;52.604;13.318;2023-08-06T03:54:17;8.93;;;7.68;;
57233;SDS011;43090;52.604;13.318;2023-08-06T03:56:43;13.82;;;8.48;;
57233;SDS011;43090;52.604;13.318;2023-08-06T03:59:10;14.63;;;9.27;;
57233;SDS011;43090;52.604;13.318;2023-08-06T04:01:36;11.05;;;8.48;;
57233;SDS011;43090;52.604;13.318;2023-08-06T04:04:03;10.73;;;7.55;;
57233;SDS011;43090;52.604;13.318;2023-08-06T04:06:29;10.82;;;8.00;;
57233;SDS011;43090;52.604;13.318;2023-08-06T04:08:56;11.35;;;8.30;;
57233;SDS011;43090;52.604;13.318;2023-08-06T04:11:22;12.98;;;9.20;;
57233;SDS011;43090;52.604;13.318;2023-08-06T04:13:49;15.30;;;8.85;;
57233;SDS011;43090;52.604;13.318;2023-08-06T04:16:15;12.63;;;8.50;;
57233;SDS011;43090;52.604;13.318;2023-08-06T04:18:42;11.15;;;8.55;;
57233;SDS011;43090;52.604;13.318;2023-08-06T04:21:08;12.20;;;9.10;;
57233;SDS011;43090;52.604;13.318;2023-08-06T04:23:35;13.43;;;8.55;;
57233;SDS011;43090;52.604;13.318;2023-08-06T04:26:01;14.95;;;8.75;;
57233;SDS011;43090;52.604;13.318;2023-08-06T04:28:28;12.38;;;8.57;;
57233;SDS011;43090;52.604;13.318;2023-08-06T04:30:54;12.48;;;8.82;;
57233;SDS011;43090;52.604;13.318;2023-08-06T04:33:22;10.30;;;7.70;;
57233;SDS011;43090;52.604;13.318;2023-08-06T04:35:53;11.45;;;8.15;;
57233;SDS011;43090;52.604;13.318;2023-08-06T04:38:20;12.43;;;8.48;;
57233;SDS011;43090;52.604;13.318;2023-08-06T04:40:47;13.13;;;8.73;;
57233;SDS011;43090;52.604;13.318;2023-08-06T04:43:13;12.93;;;7.63;;
57233;SDS011;43090;52.604;13.318;2023-08-06T04:45:45;14.02;;;8.80;;
57233;SDS011;43090;52.604;13.318;2023-08-06T04:48:13;15.18;;;8.63;;
57233;SDS011;43090;52.604;13.318;2023-08-06T04:53:09;10.50;;;8.27;;
57233;SDS011;43090;52.604;13.318;2023-08-06T04:55:35;13.35;;;7.20;;
57233;SDS011;43090;52.604;13.318;2023-08-06T04:58:02;10.63;;;8.27;;
57233;SDS011;43090;52.604;13.318;2023-08-06T05:00:29;10.38;;;8.38;;
57233;SDS011;43090;52.604;13.318;2023-08-06T05:02:55;10.85;;;8.18;;
57233;SDS011;43090;52.604;13.318;2023-08-06T05:05:22;9.73;;;7.88;;
57233;SDS011;43090;52.604;13.318;2023-08-06T05:10:16;10.43;;;7.77;;
57233;SDS011;43090;52.604;13.318;2023-08-06T05:12:42;13.70;;;9.02;;
57233;SDS011;43090;52.604;13.318;2023-08-06T05:15:09;10.73;;;7.72;;
57233;SDS011;43090;52.604;13.318;2023-08-06T05:17:35;10.98;;;8.05;;
57233;SDS011;43090;52.604;13.318;2023-08-06T05:20:02;9.45;;;7.47;;
57233;SDS011;43090;52.604;13.318;2023-08-06T05:22:29;11.82;;;8.23;;
57233;SDS011;43090;52.604;13.318;2023-08-06T05:24:55;11.30;;;7.70;;
57233;SDS011;43090;52.604;13.318;2023-08-06T05:27:22;13.38;;;7.88;;
57233;SDS011;43090;52.604;13.318;2023-08-06T05:29:48;10.65;;;8.20;;
57233;SDS011;43090;52.604;13.318;2023-08-06T05:32:15;8.90;;;7.53;;
57233;SDS011;43090;52.604;13.318;2023-08-06T05:34:41;9.73;;;7.47;;
57233;SDS011;43090;52.604;13.318;2023-08-06T05:37:08;8.40;;;7.32;;
57233;SDS011;43090;52.604;13.318;2023-08-06T05:39:35;9.95;;;7.82;;
57233;SDS011;43090;52.604;13.318;2023-08-06T05:42:02;10.52;;;6.57;;
57233;SDS011;43090;52.604;13.318;2023-08-06T05:44:29;8.80;;;6.97;;
57233;SDS011;43090;52.604;13.318;2023-08-06T05:46:56;9.25;;;6.93;;
57233;SDS011;43090;52.604;13.318;2023-08-06T05:49:22;7.88;;;6.60;;
57233;SDS011;43090;52.604;13.318;2023-08-06T05:51:49;10.77;;;6.70;;
57233;SDS011;43090;52.604;13.318;2023-08-06T05:54:16;8.57;;;6.65;;
57233;SDS011;43090;52.604;13.318;2023-08-06T05:56:42;13.18;;;6.32;;
57233;SDS011;43090;52.604;13.318;2023-08-06T05:59:09;9.55;;;7.10;;
57233;SDS011;43090;52.604;13.318;2023-08-06T06:01:35;10.77;;;6.88;;
57233;SDS011;43090;52.604;13.318;2023-08-06T06:06:29;9.32;;;6.40;;
57233;SDS011;43090;52.604;13.318;2023-08-06T06:09:01;11.93;;;6.78;;
57233;SDS011;43090;52.604;13.318;2023-08-06T06:11:28;8.63;;;7.10;;
57233;SDS011;43090;52.604;13.318;2023-08-06T06:13:55;9.43;;;6.95;;
57233;SDS011;43090;52.604;13.318;2023-08-06T06:16:21;11.20;;;6.95;;
57233;SDS011;43090;52.604;13.318;2023-08-06T06:18:48;9.60;;;7.05;;
57233;SDS011;43090;52.604;13.318;2023-08-06T06:21:14;8.50;;;6.53;;
57233;SDS011;43090;52.604;13.318;2023-08-06T06:23:41;10.70;;;6.93;;
57233;SDS011;43090;52.604;13.318;2023-08-06T06:26:19;8.65;;;6.78;;
57233;SDS011;43090;52.604;13.318;2023-08-06T06:28:57;8.90;;;6.80;;
57233;SDS011;43090;52.604;13.318;2023-08-06T06:37:56;13.02;;;7.60;;
57233;SDS011;43090;52.604;13.318;2023-08-06T06:40:22;12.70;;;7.97;;
57233;SDS011;43090;52.604;13.318;2023-08-06T06:42:50;12.30;;;7.75;;
57233;SDS011;43090;52.604;13.318;2023-08-06T06:45:16;11.50;;;7.75;;
57233;SDS011;43090;52.604;13.318;2023-08-06T06:47:43;10.85;;;8.30;;
57233;SDS011;43090;52.604;13.318;2023-08-06T06:53:26;12.13;;;8.48;;
57233;SDS011;43090;52.604;13.318;2023-08-06T07:02:47;14.82;;;8.45;;
57233;SDS011;43090;52.604;13.318;2023-08-06T07:05:28;11.25;;;8.98;;
57233;SDS011;43090;52.604;13.318;2023-08-06T07:08:54;12.73;;;8.77;;
57233;SDS011;43090;52.604;13.318;2023-08-06T07:11:20;10.82;;;8.73;;
57233;SDS011;43090;52.604;13.318;2023-08-06T07:13:49;11.05;;;8.73;;
57233;SDS011;43090;52.604;13.318;2023-08-06T07:16:21;11.40;;;9.57;;
57233;SDS011;43090;52.604;13.318;2023-08-06T07:18:48;12.35;;;10.32;;
57233;SDS011;43090;52.604;13.318;2023-08-06T07:23:41;13.77;;;8.95;;
57233;SDS011;43090;52.604;13.318;2023-08-06T07:26:08;13.48;;;9.38;;
57233;SDS011;43090;52.604;13.318;2023-08-06T07:28:35;12.68;;;9.55;;
57233;SDS011;43090;52.604;13.318;2023-08-06T07:31:02;13.20;;;9.02;;
57233;SDS011;43090;52.604;13.318;2023-08-06T07:33:34;13.52;;;8.40;;
57233;SDS011;43090;52.604;13.318;2023-08-06T07:36:07;10.02;;;8.98;;
57233;SDS011;43090;52.604;13.318;2023-08-06T07:38:37;13.48;;;9.07;;
57233;SDS011;43090;52.604;13.318;2023-08-06T07:41:04;9.68;;;8.32;;
57233;SDS011;43090;52.604;13.318;2023-08-06T07:43:31;10.60;;;8.40;;
57233;SDS011;43090;52.604;13.318;2023-08-06T07:45:58;13.60;;;8.23;;
57233;SDS011;43090;52.604;13.318;2023-08-06T07:48:28;10.15;;;8.32;;
57233;SDS011;43090;52.604;13.318;2023-08-06T07:50:55;9.40;;;7.82;;
57233;SDS011;43090;52.604;13.318;2023-08-06T07:53:22;11.10;;;8.38;;
57233;SDS011;43090;52.604;13.318;2023-08-06T07:56:05;12.35;;;8.27;;
57233;SDS011;43090;52.604;13.318;2023-08-06T07:58:32;11.63;;;8.73;;
57233;SDS011;43090;52.604;13.318;2023-08-06T08:00:59;9.90;;;7.45;;
57233;SDS011;43090;52.604;13.318;2023-08-06T08:03:29;10.88;;;8.70;;
57233;SDS011;43090;52.604;13.318;2023-08-06T08:08:25;14.52;;;10.18;;
57233;SDS011;43090;52.604;13.318;2023-08-06T08:10:52;11.75;;;9.25;;
57233;SDS011;43090;52.604;13.318;2023-08-06T08:13:18;13.55;;;9.75;;
57233;SDS011;43090;52.604;13.318;2023-08-06T08:15:45;12.75;;;9.40;;
57233;SDS011;43090;52.604;13.318;2023-08-06T08:18:11;11.30;;;10.00;;
57233;SDS011;43090;52.604;13.318;2023-08-06T08:20:38;11.90;;;9.88;;
57233;SDS011;43090;52.604;13.318;2023-08-06T08:23:04;12.38;;;8.55;;
57233;SDS011;43090;52.604;13.318;2023-08-06T08:25:31;11.88;;;9.80;;
57233;SDS011;43090;52.604;13.318;2023-08-06T08:27:58;13.80;;;10.27;;
57233;SDS011;43090;52.604;13.318;2023-08-06T08:30:24;13.93;;;9.02;;
57233;SDS011;43090;52.604;13.318;2023-08-06T08:32:51;15.75;;;10.85;;
57233;SDS011;43090;52.604;13.318;2023-08-06T08:35:18;14.63;;;10.82;;
57233;SDS011;43090;52.604;13.318;2023-08-06T08:37:44;13.30;;;10.63;;
57233;SDS011;43090;52.604;13.318;2023-08-06T08:40:11;15.63;;;10.65;;
57233;SDS011;43090;52.604;13.318;2023-08-06T08:42:38;11.15;;;9.63;;
57233;SDS011;43090;52.604;13.318;2023-08-06T08:45:04;16.35;;;12.55;;
57233;SDS011;43090;52.604;13.318;2023-08-06T08:47:36;13.65;;;11.05;;
57233;SDS011;43090;52.604;13.318;2023-08-06T08:50:03;17.50;;;12.10;;
57233;SDS011;43090;52.604;13.318;2023-08-06T08:52:33;16.85;;;11.50;;
57233;SDS011;43090;52.604;13.318;2023-08-06T08:55:00;14.15;;;10.65;;
57233;SDS011;43090;52.604;13.318;2023-08-06T08:57:27;18.95;;;11.80;;
57233;SDS011;43090;52.604;13.318;2023-08-06T08:59:54;15.80;;;11.77;;
57233;SDS011;43090;52.604;13.318;2023-08-06T09:04:48;15.98;;;11.43;;
57233;SDS011;43090;52.604;13.318;2023-08-06T09:07:16;15.00;;;11.45;;
57233;SDS011;43090;52.604;13.318;2023-08-06T09:09:45;14.82;;;10.68;;
57233;SDS011;43090;52.604;13.318;2023-08-06T09:12:15;14.65;;;10.95;;
57233;SDS011;43090;52.604;13.318;2023-08-06T09:14:42;16.15;;;11.00;;
57233;SDS011;43090;52.604;13.318;2023-08-06T09:17:09;17.73;;;12.18;;
57233;SDS011;43090;52.604;13.318;2023-08-06T09:19:42;14.50;;;10.70;;
57233;SDS011;43090;52.604;13.318;2023-08-06T09:22:35;14.40;;;11.07;;
57233;SDS011;43090;52.604;13.318;2023-08-06T09:25:01;19.10;;;11.80;;
57233;SDS011;43090;52.604;13.318;2023-08-06T09:27:30;14.85;;;11.23;;
57233;SDS011;43090;52.604;13.318;2023-08-06T09:29:56;14.02;;;10.50;;
57233;SDS011;43090;52.604;13.318;2023-08-06T09:32:23;15.13;;;11.10;;
57233;SDS011;43090;52.604;13.318;2023-08-06T09:34:54;13.63;;;10.55;;
57233;SDS011;43090;52.604;13.318;2023-08-06T09:37:22;15.80;;;12.00;;
57233;SDS011;43090;52.604;13.318;2023-08-06T09:39:48;13.35;;;11.15;;
57233;SDS011;43090;52.604;13.318;2023-08-06T09:44:41;16.55;;;11.85;;
57233;SDS011;43090;52.604;13.318;2023-08-06T09:47:08;15.07;;;10.68;;
57233;SDS011;43090;52.604;13.318;2023-08-06T09:52:01;15.32;;;10.98;;
57233;SDS011;43090;52.604;13.318;2023-08-06T09:54:28;16.55;;;11.52;;
57233;SDS011;43090;52.604;13.318;2023-08-06T09:56:56;16.55;;;11.60;;
57233;SDS011;43090;52.604;13.318;2023-08-06T09:59:23;15.68;;;10.95;;
57233;SDS011;43090;52.604;13.318;2023-08-06T10:01:50;13.65;;;10.75;;
57233;SDS011;43090;52.604;13.318;2023-08-06T10:04:19;14.45;;;10.48;;
57233;SDS011;43090;52.604;13.318;2023-08-06T10:06:53;14.13;;;10.02;;
57233;SDS011;43090;52.604;13.318;2023-08-06T10:09:23;11.00;;;8.85;;
57233;SDS011;43090;52.604;13.318;2023-08-06T10:11:53;11.63;;;8.48;;
57233;SDS011;43090;52.604;13.318;2023-08-06T10:17:31;11.20;;;9.05;;
57233;SDS011;43090;52.604;13.318;2023-08-06T10:20:16;9.63;;;8.32;;
57233;SDS011;43090;52.604;13.318;2023-08-06T10:22:43;10.30;;;8.15;;
57233;SDS011;43090;52.604;13.318;2023-08-06T10:25:16;13.82;;;7.32;;
57233;SDS011;43090;52.604;13.318;2023-08-06T10:32:57;6.22;;;5.43;;
57233;SDS011;43090;52.604;13.318;2023-08-06T10:35:36;8.48;;;5.45;;
57233;SDS011;43090;52.604;13.318;2023-08-06T10:38:24;8.50;;;5.45;;
57233;SDS011;43090;52.604;13.318;2023-08-06T10:41:03;5.88;;;5.28;;
57233;SDS011;43090;52.604;13.318;2023-08-06T10:43:36;7.53;;;4.85;;
57233;SDS011;43090;52.604;13.318;2023-08-06T10:46:10;7.35;;;4.78;;
57233;SDS011;43090;52.604;13.318;2023-08-06T10:48:41;6.95;;;5.03;;
57233;SDS011;43090;52.604;13.318;2023-08-06T10:51:09;6.93;;;5.65;;
57233;SDS011;43090;52.604;13.318;2023-08-06T10:53:37;8.30;;;5.35;;
57233;SDS011;43090;52.604;13.318;2023-08-06T10:58:41;7.17;;;6.03;;
57233;SDS011;43090;52.604;13.318;2023-08-06T11:01:08;9.48;;;6.32;;
57233;SDS011;43090;52.604;13.318;2023-08-06T11:03:36;8.55;;;6.47;;
57233;SDS011;43090;52.604;13.318;2023-08-06T11:06:03;8.15;;;7.18;;
57233;SDS011;43090;52.604;13.318;2023-08-06T11:08:37;6.80;;;5.82;;
57233;SDS011;43090;52.604;13.318;2023-08-06T11:11:14;10.15;;;6.88;;
57233;SDS011;43090;52.604;13.318;2023-08-06T11:13:42;8.27;;;6.75;;
57233;SDS011;43090;52.604;13.318;2023-08-06T11:16:13;9.95;;;7.20;;
57233;SDS011;43090;52.604;13.318;2023-08-06T11:18:41;11.23;;;7.80;;
57233;SDS011;43090;52.604;13.318;2023-08-06T11:21:10;10.00;;;8.35;;
57233;SDS011;43090;52.604;13.318;2023-08-06T11:23:40;10.55;;;8.43;;
57233;SDS011;43090;52.604;13.318;2023-08-06T11:26:07;12.10;;;7.90;;
57233;SDS011;43090;52.604;13.318;2023-08-06T11:28:42;10.93;;;8.63;;
57233;SDS011;43090;52.604;13.318;2023-08-06T11:31:22;10.88;;;8.10;;
57233;SDS011;43090;52.604;13.318;2023-08-06T11:41:08;13.20;;;10.43;;
57233;SDS011;43090;52.604;13.318;2023-08-06T11:43:35;15.70;;;10.73;;
57233;SDS011;43090;52.604;13.318;2023-08-06T11:46:05;15.10;;;11.05;;
57233;SDS011;43090;52.604;13.318;2023-08-06T11:48:31;14.93;;;11.05;;
57233;SDS011;43090;52.604;13.318;2023-08-06T11:50:58;17.60;;;12.05;;
57233;SDS011;43090;52.604;13.318;2023-08-06T11:53:28;15.73;;;12.70;;
57233;SDS011;43090;52.604;13.318;2023-08-06T11:56:21;16.23;;;11.63;;
57233;SDS011;43090;52.604;13.318;2023-08-06T11:59:44;16.90;;;12.55;;
57233;SDS011;43090;52.604;13.318;2023-08-06T12:04:57;13.85;;;10.63;;
57233;SDS011;43090;52.604;13.318;2023-08-06T12:07:40;15.93;;;11.30;;
57233;SDS011;43090;52.604;13.318;2023-08-06T12:10:07;20.73;;;11.70;;
57233;SDS011;43090;52.604;13.318;2023-08-06T12:12:35;15.57;;;11.52;;
57233;SDS011;43090;52.604;13.318;2023-08-06T12:15:02;16.60;;;11.77;;
57233;SDS011;43090;52.604;13.318;2023-08-06T12:17:29;16.33;;;11.60;;
57233;SDS011;43090;52.604;13.318;2023-08-06T12:19:57;15.68;;;12.07;;
57233;SDS011;43090;52.604;13.318;2023-08-06T12:22:23;16.73;;;12.02;;
57233;SDS011;43090;52.604;13.318;2023-08-06T12:24:52;14.90;;;10.63;;
57233;SDS011;43090;52.604;13.318;2023-08-06T12:27:19;15.65;;;10.23;;
57233;SDS011;43090;52.604;13.318;2023-08-06T12:29:46;15.98;;;10.75;;
57233;SDS011;43090;52.604;13.318;2023-08-06T12:32:14;14.40;;;9.88;;
57233;SDS011;43090;52.604;13.318;2023-08-06T12:34:44;16.95;;;10.98;;
57233;SDS011;43090;52.604;13.318;2023-08-06T12:37:13;14.95;;;10.63;;
57233;SDS011;43090;52.604;13.318;2023-08-06T12:39:40;13.85;;;10.23;;
57233;SDS011;43090;52.604;13.318;2023-08-06T12:42:06;17.92;;;10.23;;
57233;SDS011;43090;52.604;13.318;2023-08-06T12:44:35;15.55;;;10.93;;
57233;SDS011;43090;52.604;13.318;2023-08-06T12:49:29;16.25;;;9.93;;
57233;SDS011;43090;52.604;13.318;2023-08-06T12:51:57;13.30;;;10.52;;
57233;SDS011;43090;52.604;13.318;2023-08-06T12:54:26;11.75;;;9.27;;
57233;SDS011;43090;52.604;13.318;2023-08-06T12:56:53;15.32;;;10.57;;
57233;SDS011;43090;52.604;13.318;2023-08-06T13:01:46;13.65;;;10.13;;
57233;SDS011;43090;52.604;13.318;2023-08-06T13:04:14;15.98;;;10.60;;
57233;SDS011;43090;52.604;13.318;2023-08-06T13:06:47;12.43;;;9.27;;
57233;SDS011;43090;52.604;13.318;2023-08-06T13:09:14;18.05;;;11.35;;
57233;SDS011;43090;52.604;13.318;2023-08-06T13:11:41;12.55;;;10.70;;
57233;SDS011;43090;52.604;13.318;2023-08-06T13:14:09;19.02;;;11.15;;
57233;SDS011;43090;52.604;13.318;2023-08-06T13:16:37;15.60;;;10.20;;
57233;SDS011;43090;52.604;13.318;2023-08-06T13:19:05;14.48;;;10.30;;
57233;SDS011;43090;52.604;13.318;2023-08-06T13:21:33;17.52;;;11.07;;
57233;SDS011;43090;52.604;13.318;2023-08-06T13:24:01;14.18;;;10.82;;
57233;SDS011;43090;52.604;13.318;2023-08-06T13:26:29;13.18;;;9.75;;
57233;SDS011;43090;52.604;13.318;2023-08-06T13:28:59;11.48;;;9.45;;
57233;SDS011;43090;52.604;13.318;2023-08-06T13:31:26;14.68;;;9.77;;
57233;SDS011;43090;52.604;13.318;2023-08-06T13:33:54;12.60;;;9.45;;
57233;SDS011;43090;52.604;13.318;2023-08-06T13:36:21;13.00;;;9.02;;
57233;SDS011;43090;52.604;13.318;2023-08-06T13:38:48;14.68;;;8.15;;
57233;SDS011;43090;52.604;13.318;2023-08-06T13:43:42;14.48;;;8.45;;
57233;SDS011;43090;52.604;13.318;2023-08-06T13:46:10;10.77;;;8.10;;
57233;SDS011;43090;52.604;13.318;2023-08-06T13:48:42;11.82;;;8.20;;
57233;SDS011;43090;52.604;13.318;2023-08-06T13:51:10;14.20;;;8.07;;
57233;SDS011;43090;52.604;13.318;2023-08-06T13:53:40;17.67;;;7.80;;
57233;SDS011;43090;52.604;13.318;2023-08-06T13:56:08;10.10;;;6.82;;
57233;SDS011;43090;52.604;13.318;2023-08-06T13:58:38;9.00;;;6.72;;
57233;SDS011;43090;52.604;13.318;2023-08-06T14:01:05;11.95;;;7.68;;
57233;SDS011;43090;52.604;13.318;2023-08-06T14:03:32;9.38;;;5.75;;
57233;SDS011;43090;52.604;13.318;2023-08-06T14:05:59;7.22;;;5.38;;
57233;SDS011;43090;52.604;13.318;2023-08-06T14:08:26;12.95;;;6.00;;
57233;SDS011;43090;52.604;13.318;2023-08-06T14:13:19;8.50;;;4.22;;
57233;SDS011;43090;52.604;13.318;2023-08-06T14:15:47;11.65;;;5.55;;
57233;SDS011;43090;52.604;13.318;2023-08-06T14:18:14;7.22;;;5.43;;
57233;SDS011;43090;52.604;13.318;2023-08-06T14:20:41;12.23;;;4.80;;
57233;SDS011;43090;52.604;13.318;2023-08-06T14:23:08;5.63;;;4.13;;
57233;SDS011;43090;52.604;13.318;2023-08-06T14:28:02;5.90;;;4.28;;
57233;SDS011;43090;52.604;13.318;2023-08-06T14:32:55;6.20;;;3.58;;
57233;SDS011;43090;52.604;13.318;2023-08-06T14:35:21;7.13;;;4.15;;
57233;SDS011;43090;52.604;13.318;2023-08-06T14:37:51;6.85;;;3.70;;
57233;SDS011;43090;52.604;13.318;2023-08-06T14:40:17;5.88;;;3.42;;
57233;SDS011;43090;52.604;13.318;2023-08-06T14:42:44;6.22;;;3.30;;
57233;SDS011;43090;52.604;13.318;2023-08-06T14:45:11;9.73;;;4.32;;
57233;SDS011;43090;52.604;13.318;2023-08-06T14:47:37;8.05;;;4.05;;
57233;SDS011;43090;52.604;13.318;2023-08-06T14:50:04;6.50;;;3.47;;
57233;SDS011;43090;52.604;13.318;2023-08-06T14:52:30;5.90;;;3.55;;
57233;SDS011;43090;52.604;13.318;2023-08-06T14:54:57;6.72;;;3.97;;
57233;SDS011;43090;52.604;13.318;2023-08-06T14:57:24;6.70;;;3.47;;
57233;SDS011;43090;52.604;13.318;2023-08-06T14:59:54;8.20;;;3.35;;
57233;SDS011;43090;52.604;13.318;2023-08-06T15:05:05;6.57;;;3.95;;
57233;SDS011;43090;52.604;13.318;2023-08-06T15:10:41;7.10;;;3.58;;
57233;SDS011;43090;52.604;13.318;2023-08-06T15:13:07;8.55;;;3.72;;
57233;SDS011;43090;52.604;13.318;2023-08-06T15:15:34;7.35;;;3.97;;
57233;SDS011;43090;52.604;13.318;2023-08-06T15:18:04;6.20;;;3.55;;
57233;SDS011;43090;52.604;13.318;2023-08-06T15:20:41;5.47;;;3.78;;
57233;SDS011;43090;52.604;13.318;2023-08-06T15:25:58;9.30;;;3.75;;
57233;SDS011;43090;52.604;13.318;2023-08-06T15:28:30;6.03;;;4.05;;
57233;SDS011;43090;52.604;13.318;2023-08-06T15:30:59;7.88;;;3.80;;
57233;SDS011;43090;52.604;13.318;2023-08-06T15:33:27;6.72;;;3.92;;
57233;SDS011;43090;52.604;13.318;2023-08-06T15:35:54;8.77;;;4.05;;
57233;SDS011;43090;52.604;13.318;2023-08-06T15:38:23;8.85;;;4.28;;
57233;SDS011;43090;52.604;13.318;2023-08-06T15:41:00;8.77;;;3.92;;
57233;SDS011;43090;52.604;13.318;2023-08-06T15:43:29;5.38;;;4.13;;
57233;SDS011;43090;52.604;13.318;2023-08-06T15:46:18;7.57;;;4.03;;
57233;SDS011;43090;52.604;13.318;2023-08-06T15:49:01;8.73;;;4.03;;
57233;SDS011;43090;52.604;13.318;2023-08-06T15:51:28;8.60;;;4.88;;
57233;SDS011;43090;52.604;13.318;2023-08-06T15:53:55;8.02;;;3.83;;
57233;SDS011;43090;52.604;13.318;2023-08-06T15:56:21;7.95;;;3.80;;
57233;SDS011;43090;52.604;13.318;2023-08-06T15:58:48;6.32;;;3.45;;
57233;SDS011;43090;52.604;13.318;2023-08-06T16:01:20;6.93;;;3.30;;
57233;SDS011;43090;52.604;13.318;2023-08-06T16:03:53;9.45;;;3.60;;
57233;SDS011;43090;52.604;13.318;2023-08-06T16:09:35;7.05;;;2.92;;
57233;SDS011;43090;52.604;13.318;2023-08-06T16:12:08;6.40;;;2.90;;
57233;SDS011;43090;52.604;13.318;2023-08-06T16:14:36;7.70;;;3.17;;
57233;SDS011;43090;52.604;13.318;2023-08-06T16:17:03;9.98;;;3.58;;
57233;SDS011;43090;52.604;13.318;2023-08-06T16:19:29;10.23;;;3.85;;
57233;SDS011;43090;52.604;13.318;2023-08-06T16:21:56;8.00;;;3.38;;
57233;SDS011;43090;52.604;13.318;2023-08-06T16:24:23;11.07;;;3.80;;
57233;SDS011;43090;52.604;13.318;2023-08-06T16:26:49;6.40;;;3.13;;
57233;SDS011;43090;52.604;13.318;2023-08-06T16:29:16;5.50;;;2.80;;
57233;SDS011;43090;52.604;13.318;2023-08-06T16:31:42;5.55;;;2.95;;
57233;SDS011;43090;52.604;13.318;2023-08-06T16:34:09;7.65;;;3.00;;
57233;SDS011;43090;52.604;13.318;2023-08-06T16:36:35;11.40;;;3.78;;